Fort Severn, Canada
Current Conditions -  °F | °C
As of 4:14 AM on Friday 31 Oct 2014 (Local Time) from CYER Reporting Station
Light Snow Light Snow  
Wind Chill: 12°   Ceiling: 3700
Heat Index: 23°   Visibility: 7mi
Dew Point: 21°   Wind: 10mph
Humidity: 93%   Direction: 280°W
Pressure: 30.36"   Gusts: 20mph
Location:  55.98°N, 87.65°W
Report Text: CYER 310814Z AUTO 28009G17KT 7SM -SN BKN037 OVC055 M05/M06 A3036 RMK SLP283
Loading
Personal Weather Stations






























Interactive Weather Map
Tropical Storm Tracking
New forecast layout! Learn more

10-Day Weather Forecast

Advertisements
Track Severe Weather on mobile